Time;durP1;ratioP1;P1;durP2;ratioP2;P2;SDS_P1;SDS_P2;PMS_P1;PMS_P2;Temp;Humidity;BMP_temperature;BMP_pressure;BME280_temperature;BME280_humidity;BME280_pressure;Samples;Min_cycle;Max_cycle;Signal;HPM_P1;HPM_P2
2023/06/26 00:00:06;;;;;;;6.40;3.75;;;;;;;;;;4999511;28;25090;-64
2023/06/26 00:02:32;;;;;;;7.85;5.18;;;;;;;;;;5001374;28;25143;-63
2023/06/26 00:05:02;;;;;;;6.65;4.22;;;;;;;;;;5005218;28;25076;-64
2023/06/26 00:07:27;;;;;;;9.73;4.00;;;;;;;;;;5001866;28;25090;-64
2023/06/26 00:09:53;;;;;;;5.88;4.57;;;;;;;;;;5009853;28;25083;-63
2023/06/26 00:12:19;;;;;;;5.25;4.30;;;;;;;;;;5008809;28;25053;-64
2023/06/26 00:14:45;;;;;;;7.63;4.60;;;;;;;;;;5003178;28;25163;-64
2023/06/26 00:17:12;;;;;;;5.60;3.97;;;;;;;;;;4999947;28;25142;-63
2023/06/26 00:19:38;;;;;;;6.95;4.75;;;;;;;;;;4999592;28;25063;-64
2023/06/26 00:22:04;;;;;;;7.93;4.50;;;;;;;;;;4999523;28;25070;-65
2023/06/26 00:24:30;;;;;;;7.28;4.55;;;;;;;;;;5002474;28;25049;-64
2023/06/26 00:26:56;;;;;;;9.18;4.07;;;;;;;;;;4999523;28;25099;-63
2023/06/26 00:29:22;;;;;;;11.95;4.50;;;;;;;;;;4993738;28;25051;-63
2023/06/26 00:31:48;;;;;;;13.60;4.63;;;;;;;;;;5005301;28;25071;-63
2023/06/26 00:34:14;;;;;;;5.93;3.72;;;;;;;;;;4996816;28;25077;-64
2023/06/26 00:36:43;;;;;;;8.93;4.10;;;;;;;;;;5003725;28;25057;-64
2023/06/26 00:39:09;;;;;;;11.75;4.30;;;;;;;;;;4996791;28;25098;-63
2023/06/26 00:41:35;;;;;;;8.90;4.20;;;;;;;;;;4996532;28;25130;-63
2023/06/26 00:44:01;;;;;;;11.23;4.47;;;;;;;;;;5002300;28;25055;-63
2023/06/26 00:46:27;;;;;;;8.32;4.15;;;;;;;;;;4997835;28;25154;-65
2023/06/26 00:48:53;;;;;;;8.35;4.35;;;;;;;;;;4996613;28;25070;-63
2023/06/26 00:51:19;;;;;;;9.18;4.50;;;;;;;;;;4999330;28;25076;-63
2023/06/26 00:53:45;;;;;;;6.22;4.05;;;;;;;;;;4996377;28;25071;-62
2023/06/26 00:56:12;;;;;;;14.00;4.80;;;;;;;;;;4997190;28;25046;-64
2023/06/26 00:58:38;;;;;;;9.98;4.55;;;;;;;;;;5001103;28;25151;-62
2023/06/26 01:01:05;;;;;;;8.18;3.60;;;;;;;;;;4995911;28;25075;-64
2023/06/26 01:03:31;;;;;;;8.18;3.97;;;;;;;;;;4994861;28;25066;-64
2023/06/26 01:05:58;;;;;;;8.63;3.67;;;;;;;;;;5003818;28;25118;-66
2023/06/26 01:08:25;;;;;;;15.43;4.28;;;;;;;;;;5001949;28;25160;-65
2023/06/26 01:10:51;;;;;;;13.50;3.97;;;;;;;;;;4998148;28;25098;-63
2023/06/26 01:13:17;;;;;;;13.77;3.60;;;;;;;;;;4996772;28;25087;-67
2023/06/26 01:15:43;;;;;;;14.13;4.32;;;;;;;;;;5000579;28;25053;-64
2023/06/26 01:18:09;;;;;;;11.23;3.92;;;;;;;;;;4994446;28;25051;-65
2023/06/26 01:20:36;;;;;;;13.23;3.90;;;;;;;;;;5002958;28;25144;-61
2023/06/26 01:23:20;;;;;;;10.57;4.10;;;;;;;;;;4997984;28;25078;-63
2023/06/26 01:26:01;;;;;;;17.50;4.55;;;;;;;;;;4996775;28;25061;-63
2023/06/26 01:28:28;;;;;;;11.38;4.97;;;;;;;;;;5001847;28;25060;-62
2023/06/26 01:30:54;;;;;;;15.88;4.65;;;;;;;;;;5005895;28;25072;-62
2023/06/26 01:33:20;;;;;;;15.07;4.50;;;;;;;;;;5007563;28;25066;-63
2023/06/26 01:35:47;;;;;;;15.05;4.32;;;;;;;;;;5005906;28;25112;-63
2023/06/26 01:38:16;;;;;;;17.30;5.10;;;;;;;;;;4996832;28;25124;-64
2023/06/26 01:40:45;;;;;;;11.85;4.80;;;;;;;;;;4998023;28;25071;-63
2023/06/26 01:43:18;;;;;;;13.48;4.53;;;;;;;;;;5001982;28;25082;-63
2023/06/26 01:45:43;;;;;;;;;;;;;;;;;;5002228;28;25076;-64
2023/06/26 01:48:11;;;;;;;14.10;5.07;;;;;;;;;;5005940;28;24088;-64
2023/06/26 01:50:37;;;;;;;11.25;4.15;;;;;;;;;;5002025;28;25074;-63
2023/06/26 01:53:11;;;;;;;15.23;4.43;;;;;;;;;;5001240;28;25076;-63
2023/06/26 01:55:47;;;;;;;13.68;5.55;;;;;;;;;;5005119;28;25093;-61
2023/06/26 01:58:14;;;;;;;15.35;5.95;;;;;;;;;;4995225;28;25097;-62
2023/06/26 02:00:40;;;;;;;15.00;4.32;;;;;;;;;;4998027;28;25080;-64
2023/06/26 02:03:06;;;;;;;13.68;4.30;;;;;;;;;;4997737;28;25063;-65
2023/06/26 02:05:33;;;;;;;20.58;5.95;;;;;;;;;;5005858;28;25057;-63
2023/06/26 02:08:01;;;;;;;15.80;5.38;;;;;;;;;;5015761;28;25071;-63
2023/06/26 02:10:27;;;;;;;12.43;4.55;;;;;;;;;;5001420;28;25089;-62
2023/06/26 02:12:53;;;;;;;17.75;6.15;;;;;;;;;;5003720;28;25179;-64
2023/06/26 02:15:19;;;;;;;17.95;4.50;;;;;;;;;;4995138;28;25060;-63
2023/06/26 02:17:47;;;;;;;20.45;6.00;;;;;;;;;;5005333;28;25082;-64
2023/06/26 02:20:13;;;;;;;16.48;6.10;;;;;;;;;;4991984;28;25093;-63
2023/06/26 02:22:39;;;;;;;20.33;6.40;;;;;;;;;;5002945;28;25101;-63
2023/06/26 02:25:06;;;;;;;16.40;4.60;;;;;;;;;;5001144;28;25132;-66
2023/06/26 02:27:32;;;;;;;12.65;5.72;;;;;;;;;;5004449;28;25149;-63
2023/06/26 02:29:58;;;;;;;15.30;5.53;;;;;;;;;;5008005;28;25089;-61
2023/06/26 02:32:24;;;;;;;15.63;4.90;;;;;;;;;;5001734;28;25086;-63
2023/06/26 02:34:51;;;;;;;18.67;6.50;;;;;;;;;;4998320;28;25058;-64
2023/06/26 02:37:17;;;;;;;24.88;6.72;;;;;;;;;;5006442;28;25074;-61
2023/06/26 02:39:43;;;;;;;15.07;5.45;;;;;;;;;;5001195;28;25067;-63
2023/06/26 02:42:09;;;;;;;16.67;5.32;;;;;;;;;;5008811;28;25163;-62
2023/06/26 02:44:35;;;;;;;19.75;5.70;;;;;;;;;;5005871;28;25061;-63
2023/06/26 02:47:01;;;;;;;24.55;6.22;;;;;;;;;;5006355;28;25079;-61
2023/06/26 02:49:27;;;;;;;16.88;6.22;;;;;;;;;;5006858;28;25127;-63
2023/06/26 02:51:53;;;;;;;12.57;5.28;;;;;;;;;;5001973;28;25126;-62
2023/06/26 02:54:19;;;;;;;18.90;5.53;;;;;;;;;;4998489;28;25059;-62
2023/06/26 02:56:45;;;;;;;15.85;5.03;;;;;;;;;;4997840;28;25082;-62
2023/06/26 02:59:11;;;;;;;24.35;5.65;;;;;;;;;;4994309;28;25079;-66
2023/06/26 03:01:37;;;;;;;20.45;6.88;;;;;;;;;;5006158;28;25157;-63
2023/06/26 03:04:04;;;;;;;13.60;4.88;;;;;;;;;;5002496;28;25064;-68
2023/06/26 03:06:30;;;;;;;16.95;5.50;;;;;;;;;;5004788;28;25129;-62
2023/06/26 03:08:55;;;;;;;16.63;5.47;;;;;;;;;;5002400;28;25055;-63
2023/06/26 03:11:21;;;;;;;18.33;6.35;;;;;;;;;;4998594;28;25987;-66
2023/06/26 03:13:47;;;;;;;19.15;6.60;;;;;;;;;;5004867;28;25168;-67
2023/06/26 03:16:13;;;;;;;14.43;4.95;;;;;;;;;;5000349;28;25069;-63
2023/06/26 03:18:39;;;;;;;17.73;4.82;;;;;;;;;;5004823;28;25097;-62
2023/06/26 03:21:05;;;;;;;20.77;5.18;;;;;;;;;;5001092;28;25062;-63
2023/06/26 03:23:31;;;;;;;20.52;5.68;;;;;;;;;;4997973;28;25064;-64
2023/06/26 03:25:57;;;;;;;20.17;5.30;;;;;;;;;;5005039;28;25163;-63
2023/06/26 03:28:23;;;;;;;14.93;5.30;;;;;;;;;;5002455;28;25117;-63
2023/06/26 03:30:49;;;;;;;16.60;5.32;;;;;;;;;;5006726;28;25076;-63
2023/06/26 03:33:15;;;;;;;18.08;5.03;;;;;;;;;;4998720;28;25101;-63
2023/06/26 03:35:41;;;;;;;18.05;5.55;;;;;;;;;;4999381;28;25082;-64
2023/06/26 03:38:07;;;;;;;11.27;3.75;;;;;;;;;;4998452;28;25093;-63
2023/06/26 03:40:33;;;;;;;13.77;3.60;;;;;;;;;;4999806;28;25150;-62
2023/06/26 03:42:59;;;;;;;16.23;4.47;;;;;;;;;;5004595;28;25130;-63
2023/06/26 03:45:25;;;;;;;9.10;3.95;;;;;;;;;;5005931;28;25086;-63
2023/06/26 03:47:51;;;;;;;16.23;3.70;;;;;;;;;;5004868;28;25053;-63
2023/06/26 03:50:17;;;;;;;14.05;3.63;;;;;;;;;;5003908;28;25071;-63
2023/06/26 03:52:43;;;;;;;10.38;4.45;;;;;;;;;;4999197;28;25103;-63
2023/06/26 03:55:09;;;;;;;14.57;4.00;;;;;;;;;;4997849;28;25114;-62
2023/06/26 03:57:35;;;;;;;14.25;4.38;;;;;;;;;;4996718;28;25064;-63
2023/06/26 04:00:02;;;;;;;9.85;3.67;;;;;;;;;;5003209;28;25059;-64
2023/06/26 04:02:27;;;;;;;15.80;4.30;;;;;;;;;;4998035;28;25070;-62
2023/06/26 04:04:53;;;;;;;18.90;4.38;;;;;;;;;;4996304;28;25065;-64
2023/06/26 04:07:19;;;;;;;10.80;3.63;;;;;;;;;;4999193;28;25085;-64
2023/06/26 04:09:45;;;;;;;10.13;3.63;;;;;;;;;;5003019;28;25125;-66
2023/06/26 04:12:11;;;;;;;11.00;3.70;;;;;;;;;;4995485;28;25138;-64
2023/06/26 04:14:37;;;;;;;14.43;3.88;;;;;;;;;;4996091;28;25153;-63
2023/06/26 04:17:03;;;;;;;18.50;4.25;;;;;;;;;;5002668;28;25131;-65
2023/06/26 04:19:30;;;;;;;13.18;4.18;;;;;;;;;;4998999;28;25069;-62
2023/06/26 04:21:56;;;;;;;12.73;3.80;;;;;;;;;;4999778;28;25066;-64
2023/06/26 04:24:22;;;;;;;9.23;3.67;;;;;;;;;;4998999;28;25105;-63
2023/06/26 04:26:48;;;;;;;12.07;3.35;;;;;;;;;;5002068;28;25147;-62
2023/06/26 04:29:14;;;;;;;11.43;3.92;;;;;;;;;;5000388;28;25154;-66
2023/06/26 04:31:40;;;;;;;11.55;3.70;;;;;;;;;;5002902;28;25150;-63
2023/06/26 04:34:06;;;;;;;13.93;3.70;;;;;;;;;;4997160;28;25138;-64
2023/06/26 04:36:33;;;;;;;11.73;4.00;;;;;;;;;;4999085;28;25071;-63
2023/06/26 04:38:59;;;;;;;22.35;4.93;;;;;;;;;;4996184;28;25057;-63
2023/06/26 04:41:25;;;;;;;15.05;3.92;;;;;;;;;;4999432;28;25080;-63
2023/06/26 04:43:51;;;;;;;8.95;3.50;;;;;;;;;;4998679;28;25112;-63
2023/06/26 04:46:17;;;;;;;10.65;3.80;;;;;;;;;;4996640;28;25150;-62
2023/06/26 04:48:44;;;;;;;8.70;3.70;;;;;;;;;;4998762;28;25136;-62
2023/06/26 04:51:10;;;;;;;13.73;3.58;;;;;;;;;;5000210;28;25086;-62
2023/06/26 04:53:36;;;;;;;14.40;4.00;;;;;;;;;;4994698;28;25067;-62
2023/06/26 04:56:02;;;;;;;13.27;4.45;;;;;;;;;;4998940;28;25065;-63
2023/06/26 04:58:28;;;;;;;15.65;4.20;;;;;;;;;;4996193;28;25074;-63
2023/06/26 05:00:54;;;;;;;10.70;3.35;;;;;;;;;;5005596;28;25107;-63
2023/06/26 05:03:20;;;;;;;13.43;3.65;;;;;;;;;;4995970;28;25085;-64
2023/06/26 05:05:46;;;;;;;17.42;4.80;;;;;;;;;;5001488;28;25071;-63
2023/06/26 05:08:19;;;;;;;11.07;3.58;;;;;;;;;;5002020;28;25092;-64
2023/06/26 05:10:45;;;;;;;9.88;3.55;;;;;;;;;;4996588;28;25146;-63
2023/06/26 05:13:14;;;;;;;14.60;3.15;;;;;;;;;;5000428;28;25148;-63
2023/06/26 05:15:40;;;;;;;14.55;3.95;;;;;;;;;;4998844;28;25153;-62
2023/06/26 05:18:06;;;;;;;16.55;3.83;;;;;;;;;;4996466;28;25105;-63
2023/06/26 05:20:32;;;;;;;14.93;3.67;;;;;;;;;;5001005;28;25064;-63
2023/06/26 05:22:58;;;;;;;9.23;3.78;;;;;;;;;;4998139;28;25074;-64
2023/06/26 05:25:25;;;;;;;16.15;4.57;;;;;;;;;;5000473;28;25070;-62
2023/06/26 05:27:51;;;;;;;11.38;3.20;;;;;;;;;;4997264;28;25158;-64
2023/06/26 05:30:19;;;;;;;8.18;2.88;;;;;;;;;;4996234;28;25070;-62
2023/06/26 05:32:46;;;;;;;9.75;4.03;;;;;;;;;;4997335;28;25147;-62
2023/06/26 05:35:12;;;;;;;8.50;2.97;;;;;;;;;;5002629;28;25119;-62
2023/06/26 05:37:38;;;;;;;10.20;3.75;;;;;;;;;;4998516;28;25094;-62
2023/06/26 05:40:05;;;;;;;5.68;2.72;;;;;;;;;;4999680;28;25083;-63
2023/06/26 05:42:31;;;;;;;3.47;2.00;;;;;;;;;;5005932;28;25100;-62
2023/06/26 05:44:57;;;;;;;3.05;2.72;;;;;;;;;;4995948;28;25086;-63
2023/06/26 05:47:23;;;;;;;5.47;2.63;;;;;;;;;;5003614;28;25081;-64
2023/06/26 05:49:49;;;;;;;4.53;2.33;;;;;;;;;;4998354;28;25071;-62
2023/06/26 05:52:15;;;;;;;5.13;2.78;;;;;;;;;;4996613;28;25068;-63
2023/06/26 05:54:42;;;;;;;5.38;2.38;;;;;;;;;;4993534;28;25050;-62
2023/06/26 05:57:08;;;;;;;7.07;2.65;;;;;;;;;;4995487;28;25076;-63
2023/06/26 05:59:36;;;;;;;8.35;2.60;;;;;;;;;;5004106;28;25094;-62
2023/06/26 06:02:02;;;;;;;4.38;2.63;;;;;;;;;;4993750;28;25115;-64
2023/06/26 06:04:28;;;;;;;7.10;2.55;;;;;;;;;;5002751;28;25149;-62
2023/06/26 06:06:54;;;;;;;5.15;2.00;;;;;;;;;;5000305;28;25071;-62
2023/06/26 06:09:20;;;;;;;3.10;1.90;;;;;;;;;;4994311;28;25052;-63
2023/06/26 06:11:46;;;;;;;9.15;2.00;;;;;;;;;;5003658;28;25091;-62
2023/06/26 06:14:12;;;;;;;8.73;3.83;;;;;;;;;;5000695;28;25127;-62
2023/06/26 06:16:38;;;;;;;6.70;1.80;;;;;;;;;;4996986;28;25059;-62
2023/06/26 06:19:06;;;;;;;4.18;1.40;;;;;;;;;;4990930;28;25093;-61
2023/06/26 06:21:32;;;;;;;2.97;1.67;;;;;;;;;;4993724;28;25097;-61
2023/06/26 06:23:58;;;;;;;5.40;2.10;;;;;;;;;;4995900;28;25078;-62
2023/06/26 06:26:24;;;;;;;7.00;1.30;;;;;;;;;;4992150;28;25075;-62
2023/06/26 06:28:50;;;;;;;8.30;1.50;;;;;;;;;;4997724;28;25121;-61
2023/06/26 06:31:16;;;;;;;3.53;1.23;;;;;;;;;;5004431;28;25049;-62
2023/06/26 06:33:42;;;;;;;7.63;1.50;;;;;;;;;;5006894;28;25105;-63
2023/06/26 06:36:08;;;;;;;6.43;1.67;;;;;;;;;;5003972;28;25076;-62
2023/06/26 06:38:34;;;;;;;5.47;1.42;;;;;;;;;;5006316;28;25080;-64
2023/06/26 06:41:00;;;;;;;6.20;1.50;;;;;;;;;;4994439;28;25111;-63
2023/06/26 06:43:27;;;;;;;5.65;1.88;;;;;;;;;;5002060;28;25105;-62
2023/06/26 06:45:53;;;;;;;4.00;1.60;;;;;;;;;;5004594;28;25064;-63
2023/06/26 06:48:19;;;;;;;4.47;1.35;;;;;;;;;;5001485;28;25065;-62
2023/06/26 06:50:44;;;;;;;4.88;1.60;;;;;;;;;;5002173;28;25080;-61
2023/06/26 06:53:11;;;;;;;7.78;1.70;;;;;;;;;;4999045;28;25058;-61
2023/06/26 06:55:37;;;;;;;8.45;1.63;;;;;;;;;;5005175;28;25046;-60
2023/06/26 06:58:03;;;;;;;3.95;1.27;;;;;;;;;;4997448;28;25073;-61
2023/06/26 07:00:28;;;;;;;3.67;1.30;;;;;;;;;;4999341;28;25052;-62
2023/06/26 07:02:56;;;;;;;9.23;2.38;;;;;;;;;;5001586;28;25054;-63
2023/06/26 07:05:22;;;;;;;3.55;1.73;;;;;;;;;;4996525;28;25054;-62
2023/06/26 07:07:48;;;;;;;2.38;1.10;;;;;;;;;;4992926;28;25147;-61
2023/06/26 07:10:14;;;;;;;5.03;1.60;;;;;;;;;;4998420;28;25114;-63
2023/06/26 07:12:40;;;;;;;6.82;1.30;;;;;;;;;;4997602;28;25052;-63
2023/06/26 07:15:07;;;;;;;5.70;1.83;;;;;;;;;;5003765;28;25082;-62
2023/06/26 07:17:33;;;;;;;6.68;1.98;;;;;;;;;;5001998;28;25140;-61
2023/06/26 07:20:00;;;;;;;7.25;1.88;;;;;;;;;;4991891;28;25093;-61
2023/06/26 07:22:25;;;;;;;7.38;1.85;;;;;;;;;;4999229;28;25078;-64
2023/06/26 07:24:51;;;;;;;8.23;1.60;;;;;;;;;;4994996;28;25074;-60
2023/06/26 07:27:18;;;;;;;7.60;1.88;;;;;;;;;;4993617;28;25094;-62
2023/06/26 07:29:44;;;;;;;3.92;1.33;;;;;;;;;;5003632;28;25051;-61
2023/06/26 07:32:10;;;;;;;4.32;1.38;;;;;;;;;;5000293;28;25095;-61
2023/06/26 07:34:36;;;;;;;3.95;1.42;;;;;;;;;;5005177;28;25068;-61
2023/06/26 07:37:02;;;;;;;4.93;1.77;;;;;;;;;;5002029;28;25079;-63
2023/06/26 07:39:28;;;;;;;4.65;0.90;;;;;;;;;;5003267;28;25498;-62
2023/06/26 07:41:54;;;;;;;5.28;1.33;;;;;;;;;;4999506;28;25084;-62
2023/06/26 07:44:20;;;;;;;4.05;1.52;;;;;;;;;;5001852;28;25090;-62
2023/06/26 07:46:46;;;;;;;4.95;1.15;;;;;;;;;;4991800;28;25108;-62
2023/06/26 07:49:12;;;;;;;6.03;1.10;;;;;;;;;;5001601;28;25083;-62
2023/06/26 07:51:38;;;;;;;3.45;1.50;;;;;;;;;;4998186;28;25068;-63
2023/06/26 07:54:04;;;;;;;2.78;1.20;;;;;;;;;;4999488;28;25103;-62
2023/06/26 07:56:30;;;;;;;5.75;1.50;;;;;;;;;;4997474;28;25098;-61
2023/06/26 07:59:04;;;;;;;2.47;1.05;;;;;;;;;;5003788;28;25077;-63
2023/06/26 08:01:30;;;;;;;3.55;1.65;;;;;;;;;;5004504;28;25050;-61
2023/06/26 08:03:56;;;;;;;5.40;1.63;;;;;;;;;;4999074;28;25088;-62
2023/06/26 08:06:22;;;;;;;4.30;1.15;;;;;;;;;;5001559;28;25082;-61
2023/06/26 08:08:48;;;;;;;4.65;1.35;;;;;;;;;;4997143;28;25059;-61
2023/06/26 08:11:14;;;;;;;1.95;1.20;;;;;;;;;;4994588;28;25059;-63
2023/06/26 08:13:39;;;;;;;4.90;1.50;;;;;;;;;;5002331;28;25142;-62
2023/06/26 08:16:05;;;;;;;4.13;1.20;;;;;;;;;;4995863;28;25038;-62
2023/06/26 08:18:31;;;;;;;4.75;1.60;;;;;;;;;;4999193;28;25054;-60
2023/06/26 08:20:57;;;;;;;5.20;1.35;;;;;;;;;;4996757;28;25076;-61
2023/06/26 08:23:24;;;;;;;6.70;2.15;;;;;;;;;;5000741;28;25055;-62
2023/06/26 08:25:50;;;;;;;8.38;2.42;;;;;;;;;;4998822;28;25072;-61
2023/06/26 08:28:16;;;;;;;3.15;1.40;;;;;;;;;;4997758;28;25243;-61
2023/06/26 08:30:42;;;;;;;4.80;1.33;;;;;;;;;;5000535;28;25111;-63
2023/06/26 08:33:12;;;;;;;6.80;1.38;;;;;;;;;;4990030;28;25096;-61
2023/06/26 08:35:37;;;;;;;3.22;1.40;;;;;;;;;;4997055;28;25076;-62
2023/06/26 08:38:03;;;;;;;5.72;1.50;;;;;;;;;;5003216;28;25074;-62
2023/06/26 08:40:30;;;;;;;3.30;1.30;;;;;;;;;;5001397;28;25064;-64
2023/06/26 08:42:56;;;;;;;4.38;1.42;;;;;;;;;;4993950;28;25111;-62
2023/06/26 08:45:22;;;;;;;2.47;1.13;;;;;;;;;;4993568;28;25107;-61
2023/06/26 08:47:50;;;;;;;3.75;1.60;;;;;;;;;;5002821;28;25094;-63
2023/06/26 08:50:18;;;;;;;5.68;1.35;;;;;;;;;;4995689;28;25101;-65
2023/06/26 08:52:46;;;;;;;3.60;1.20;;;;;;;;;;5001059;28;25066;-65
2023/06/26 08:55:13;;;;;;;6.68;1.92;;;;;;;;;;4998766;28;25050;-62
2023/06/26 08:57:39;;;;;;;3.92;1.45;;;;;;;;;;4996524;28;25049;-62
2023/06/26 09:00:05;;;;;;;7.63;1.77;;;;;;;;;;4997650;28;25070;-62
2023/06/26 09:02:31;;;;;;;9.35;2.30;;;;;;;;;;4996830;28;25057;-62
2023/06/26 09:04:58;;;;;;;2.47;1.48;;;;;;;;;;4993812;28;25073;-64
2023/06/26 09:07:24;;;;;;;4.53;1.67;;;;;;;;;;4993443;28;25104;-62
2023/06/26 09:09:50;;;;;;;4.35;1.40;;;;;;;;;;4995918;28;25089;-61
2023/06/26 09:12:16;;;;;;;3.40;1.30;;;;;;;;;;4989326;28;25070;-60
2023/06/26 09:14:42;;;;;;;6.47;1.85;;;;;;;;;;4998427;28;25070;-61
2023/06/26 09:17:08;;;;;;;5.05;1.45;;;;;;;;;;4999163;28;25060;-62
2023/06/26 09:19:38;;;;;;;4.45;1.35;;;;;;;;;;5000698;28;25143;-62
2023/06/26 09:22:04;;;;;;;2.75;1.17;;;;;;;;;;5001422;28;25059;-61
2023/06/26 09:24:31;;;;;;;3.88;1.20;;;;;;;;;;4999307;28;25074;-60
2023/06/26 09:26:57;;;;;;;4.10;0.98;;;;;;;;;;4997571;28;25079;-63
2023/06/26 09:29:23;;;;;;;3.40;1.25;;;;;;;;;;4992852;28;25096;-61
2023/06/26 09:31:52;;;;;;;6.93;1.38;;;;;;;;;;5000963;28;25091;-61
2023/06/26 09:34:20;;;;;;;5.63;1.20;;;;;;;;;;4995739;28;25073;-60
2023/06/26 09:36:47;;;;;;;4.35;1.20;;;;;;;;;;5000188;28;25072;-62
2023/06/26 09:39:14;;;;;;;4.50;1.13;;;;;;;;;;4997653;28;25050;-61
2023/06/26 09:41:44;;;;;;;7.30;1.73;;;;;;;;;;4993004;28;25078;-61
2023/06/26 09:44:11;;;;;;;5.10;1.90;;;;;;;;;;4995062;28;25057;-61
2023/06/26 09:46:38;;;;;;;2.65;1.35;;;;;;;;;;5002007;28;25070;-62
2023/06/26 09:49:07;;;;;;;7.70;1.48;;;;;;;;;;4998785;28;25099;-62
2023/06/26 09:51:33;;;;;;;8.15;1.40;;;;;;;;;;4999415;28;25080;-61
2023/06/26 09:54:00;;;;;;;5.85;1.75;;;;;;;;;;4998445;28;25057;-61
2023/06/26 09:56:26;;;;;;;8.32;1.45;;;;;;;;;;5002018;28;25142;-63
2023/06/26 09:58:54;;;;;;;6.00;1.42;;;;;;;;;;5002484;28;25050;-62
2023/06/26 10:01:20;;;;;;;10.10;2.33;;;;;;;;;;5000821;28;25105;-61
2023/06/26 10:03:46;;;;;;;1.77;0.85;;;;;;;;;;4998371;28;25174;-61
2023/06/26 10:06:13;;;;;;;5.43;1.55;;;;;;;;;;4996268;28;25084;-61
2023/06/26 10:08:40;;;;;;;3.38;1.23;;;;;;;;;;5004898;28;25046;-62
2023/06/26 10:11:07;;;;;;;5.55;2.30;;;;;;;;;;5001075;28;25070;-60
2023/06/26 10:13:35;;;;;;;7.68;1.30;;;;;;;;;;5005320;28;25054;-62
2023/06/26 10:16:01;;;;;;;11.18;2.03;;;;;;;;;;5000168;28;25162;-61
2023/06/26 10:18:28;;;;;;;5.45;1.30;;;;;;;;;;5000994;28;25122;-61
2023/06/26 10:20:56;;;;;;;4.28;1.50;;;;;;;;;;5000801;28;25078;-61
2023/06/26 10:23:22;;;;;;;5.07;1.40;;;;;;;;;;5005752;28;25125;-60
2023/06/26 10:25:49;;;;;;;6.25;1.02;;;;;;;;;;5002682;28;25049;-61
2023/06/26 10:28:16;;;;;;;3.15;1.00;;;;;;;;;;4999025;28;25141;-62
2023/06/26 10:30:45;;;;;;;5.90;1.30;;;;;;;;;;5001000;28;25161;-61
2023/06/26 10:33:11;;;;;;;2.95;1.15;;;;;;;;;;4994752;28;25123;-62
2023/06/26 10:35:44;;;;;;;4.20;1.60;;;;;;;;;;4999380;28;25048;-62
2023/06/26 10:38:10;;;;;;;2.60;1.33;;;;;;;;;;4996206;28;25154;-60
2023/06/26 10:40:41;;;;;;;5.30;1.40;;;;;;;;;;5002343;28;25538;-62
2023/06/26 10:43:08;;;;;;;7.85;2.25;;;;;;;;;;5002267;28;25080;-61
2023/06/26 10:45:35;;;;;;;5.22;1.85;;;;;;;;;;5001396;28;25058;-63
2023/06/26 10:48:01;;;;;;;3.42;1.42;;;;;;;;;;5004398;28;25054;-61
2023/06/26 10:50:31;;;;;;;3.05;1.60;;;;;;;;;;4997391;28;25066;-61
2023/06/26 10:53:10;;;;;;;3.25;1.40;;;;;;;;;;5000043;28;25069;-62
2023/06/26 10:55:36;;;;;;;4.97;1.30;;;;;;;;;;5001801;28;25141;-60
2023/06/26 10:58:02;;;;;;;5.57;1.08;;;;;;;;;;5003281;28;25074;-60
2023/06/26 11:00:29;;;;;;;4.28;1.02;;;;;;;;;;5003901;28;25082;-62
2023/06/26 11:02:55;;;;;;;2.20;1.00;;;;;;;;;;4995920;28;25069;-60
2023/06/26 11:05:25;;;;;;;6.25;1.50;;;;;;;;;;5000341;28;25074;-61
2023/06/26 11:08:03;;;;;;;6.57;1.40;;;;;;;;;;5000182;28;25073;-61
2023/06/26 11:10:29;;;;;;;4.15;1.50;;;;;;;;;;4995853;28;25074;-60
2023/06/26 11:12:58;;;;;;;5.97;1.88;;;;;;;;;;4997888;28;25078;-62
2023/06/26 11:15:25;;;;;;;2.28;1.23;;;;;;;;;;4999397;28;25092;-60
2023/06/26 11:17:52;;;;;;;4.63;1.23;;;;;;;;;;4996398;28;25047;-62
2023/06/26 11:20:18;;;;;;;4.18;1.40;;;;;;;;;;5005357;28;25056;-61
2023/06/26 11:22:44;;;;;;;3.20;1.20;;;;;;;;;;4999377;28;25054;-62
2023/06/26 11:25:11;;;;;;;2.88;1.05;;;;;;;;;;4998467;28;25079;-62
2023/06/26 11:27:43;;;;;;;3.15;0.98;;;;;;;;;;4995586;28;25145;-62
2023/06/26 11:30:11;;;;;;;3.67;1.20;;;;;;;;;;4999816;28;25084;-62
2023/06/26 11:32:37;;;;;;;3.38;1.17;;;;;;;;;;4995985;28;25167;-62
2023/06/26 11:35:04;;;;;;;2.95;1.00;;;;;;;;;;4999871;28;25079;-60
2023/06/26 11:37:30;;;;;;;2.22;0.85;;;;;;;;;;4999936;28;25081;-59
2023/06/26 11:39:56;;;;;;;2.30;1.02;;;;;;;;;;4999780;28;25070;-65
2023/06/26 11:42:24;;;;;;;1.38;0.80;;;;;;;;;;4995307;28;25067;-61
2023/06/26 11:44:50;;;;;;;2.75;0.98;;;;;;;;;;5001332;28;25134;-63
2023/06/26 11:47:20;;;;;;;6.10;1.20;;;;;;;;;;4995978;28;25095;-61
2023/06/26 11:49:47;;;;;;;8.27;1.27;;;;;;;;;;5003144;28;25095;-62
2023/06/26 11:52:13;;;;;;;4.05;1.17;;;;;;;;;;4999416;28;25109;-61
2023/06/26 11:54:39;;;;;;;4.13;1.02;;;;;;;;;;4996516;28;25076;-60
2023/06/26 11:57:05;;;;;;;1.90;1.23;;;;;;;;;;4998713;28;25060;-62
2023/06/26 11:59:39;;;;;;;1.77;0.70;;;;;;;;;;4998836;28;25164;-61
2023/06/26 12:02:06;;;;;;;3.45;0.90;;;;;;;;;;4991773;28;25052;-61
2023/06/26 12:04:33;;;;;;;3.00;0.68;;;;;;;;;;4997666;28;25068;-62
2023/06/26 12:07:00;;;;;;;1.35;0.98;;;;;;;;;;5000734;28;25068;-62
2023/06/26 12:09:26;;;;;;;3.92;0.98;;;;;;;;;;4991510;28;25097;-61
2023/06/26 12:11:53;;;;;;;1.45;0.70;;;;;;;;;;4999180;28;25153;-62
2023/06/26 12:14:20;;;;;;;2.08;1.25;;;;;;;;;;4993677;28;25070;-61
2023/06/26 12:16:47;;;;;;;8.93;1.42;;;;;;;;;;4990975;28;25086;-61
2023/06/26 12:19:13;;;;;;;2.67;0.95;;;;;;;;;;4998705;28;25076;-63
2023/06/26 12:21:44;;;;;;;5.90;1.70;;;;;;;;;;4999334;28;25060;-62
2023/06/26 12:24:10;;;;;;;2.45;1.15;;;;;;;;;;4993910;28;25058;-60
2023/06/26 12:26:39;;;;;;;2.15;0.80;;;;;;;;;;4996754;28;25070;-61
2023/06/26 12:29:28;;;;;;;1.67;0.98;;;;;;;;;;4989966;28;25074;-62
2023/06/26 12:31:54;;;;;;;3.20;0.80;;;;;;;;;;4995932;28;25062;-60
2023/06/26 12:34:21;;;;;;;1.80;0.85;;;;;;;;;;4995910;28;25121;-61
2023/06/26 12:36:50;;;;;;;1.58;0.98;;;;;;;;;;4997221;28;25097;-62
2023/06/26 12:39:27;;;;;;;2.67;0.88;;;;;;;;;;5002618;28;25057;-61
2023/06/26 12:41:54;;;;;;;3.70;1.10;;;;;;;;;;4995257;28;25074;-61
2023/06/26 12:44:30;;;;;;;3.00;1.00;;;;;;;;;;4999429;28;25148;-62
2023/06/26 12:46:58;;;;;;;1.73;0.98;;;;;;;;;;4997855;28;25093;-61
2023/06/26 12:49:40;;;;;;;4.65;1.25;;;;;;;;;;4991931;28;25092;-62
2023/06/26 12:52:06;;;;;;;;;;;;;;;;;;4987958;28;25144;-63
2023/06/26 12:54:33;;;;;;;3.47;1.50;;;;;;;;;;4999227;28;25145;-61
2023/06/26 12:56:59;;;;;;;4.35;1.17;;;;;;;;;;4998406;28;25065;-63
2023/06/26 12:59:25;;;;;;;4.65;0.90;;;;;;;;;;4993672;28;25066;-61
2023/06/26 13:01:51;;;;;;;0.73;0.70;;;;;;;;;;4996047;28;25069;-61
2023/06/26 13:04:17;;;;;;;3.60;1.38;;;;;;;;;;4990055;28;25070;-60
2023/06/26 13:06:43;;;;;;;3.58;1.40;;;;;;;;;;4995125;28;25111;-61
2023/06/26 13:09:09;;;;;;;3.83;0.90;;;;;;;;;;4999729;28;25068;-61
2023/06/26 13:11:36;;;;;;;3.83;1.10;;;;;;;;;;4990993;28;25069;-62
2023/06/26 13:14:03;;;;;;;3.50;1.00;;;;;;;;;;4991840;28;25105;-62
2023/06/26 13:16:29;;;;;;;3.10;1.33;;;;;;;;;;4998327;28;25075;-62
2023/06/26 13:18:55;;;;;;;1.92;0.88;;;;;;;;;;5000401;28;25064;-60
2023/06/26 13:21:22;;;;;;;6.95;0.90;;;;;;;;;;5024544;28;25067;-63
2023/06/26 13:23:48;;;;;;;1.92;0.90;;;;;;;;;;4994802;28;25130;-61
2023/06/26 13:26:14;;;;;;;3.90;0.85;;;;;;;;;;5001824;28;25052;-62
2023/06/26 13:28:40;;;;;;;4.68;0.98;;;;;;;;;;4995050;28;25092;-62
2023/06/26 13:31:05;;;;;;;2.92;0.95;;;;;;;;;;4991331;28;25055;-62
2023/06/26 13:33:31;;;;;;;2.85;1.00;;;;;;;;;;4998324;28;25118;-62
2023/06/26 13:35:58;;;;;;;2.22;1.05;;;;;;;;;;4995683;28;25085;-61
2023/06/26 13:38:24;;;;;;;5.97;1.00;;;;;;;;;;4998741;28;25076;-62
2023/06/26 13:40:55;;;;;;;1.23;0.88;;;;;;;;;;4999102;28;25081;-63
2023/06/26 13:43:21;;;;;;;5.47;1.02;;;;;;;;;;4994277;28;25056;-61
2023/06/26 13:45:47;;;;;;;1.25;0.82;;;;;;;;;;4998780;28;25158;-63
2023/06/26 13:48:14;;;;;;;1.92;1.00;;;;;;;;;;4990875;28;25069;-63
2023/06/26 13:50:40;;;;;;;2.40;1.00;;;;;;;;;;5003609;28;25084;-62
2023/06/26 13:53:06;;;;;;;3.78;1.00;;;;;;;;;;4999930;28;25170;-61
2023/06/26 13:55:32;;;;;;;5.35;1.27;;;;;;;;;;5001139;28;25091;-61
2023/06/26 13:57:58;;;;;;;2.78;0.85;;;;;;;;;;4998205;28;25055;-61
2023/06/26 14:00:25;;;;;;;3.65;0.90;;;;;;;;;;5002468;28;25135;-62
2023/06/26 14:02:51;;;;;;;3.80;1.70;;;;;;;;;;4996268;28;25055;-61
2023/06/26 14:05:18;;;;;;;5.60;0.90;;;;;;;;;;4991746;28;25066;-61
2023/06/26 14:07:44;;;;;;;7.03;1.52;;;;;;;;;;4984347;28;25059;-58
2023/06/26 14:10:10;;;;;;;2.47;1.38;;;;;;;;;;4992608;28;25174;-62
2023/06/26 14:12:36;;;;;;;4.60;1.25;;;;;;;;;;4989913;28;25153;-61
2023/06/26 14:15:03;;;;;;;3.65;1.20;;;;;;;;;;4992568;28;25075;-61
2023/06/26 14:17:29;;;;;;;1.88;0.98;;;;;;;;;;4994907;28;25054;-62
2023/06/26 14:19:55;;;;;;;8.32;1.63;;;;;;;;;;4992451;28;25070;-63
2023/06/26 14:22:21;;;;;;;1.42;0.93;;;;;;;;;;4992556;28;25067;-60
2023/06/26 14:24:49;;;;;;;1.58;1.08;;;;;;;;;;5000059;28;25118;-62
2023/06/26 14:27:15;;;;;;;3.97;1.27;;;;;;;;;;4994748;28;25154;-61
2023/06/26 14:29:41;;;;;;;2.65;1.20;;;;;;;;;;4991992;28;25070;-60
2023/06/26 14:32:07;;;;;;;5.47;0.95;;;;;;;;;;4998551;28;25152;-64
2023/06/26 14:34:33;;;;;;;2.83;0.90;;;;;;;;;;5002916;28;25076;-61
2023/06/26 14:36:59;;;;;;;2.38;1.40;;;;;;;;;;4999116;28;25071;-61